Perry, Georgia
Current Conditions -  °F | °C
As of 12:35 AM on Wednesday 26 Nov 2014 (Local Time) from KPXE Reporting Station
Moderate Rain Moderate Rain  
Wind Chill: 49°   Ceiling: 4600
Heat Index: 49°   Visibility: 7mi
Dew Point: 45°   Wind: 0mph
Humidity: 86%   Direction: NA
Pressure: 30.04"   Gusts: NA
Location:  32.46°N, 83.73°W
Report Text: KPXE 260535Z AUTO 00000KT 7SM RA OVC046 09/07 A3004 RMK AO2 T00930071
Loading
Personal Weather Stations






























Interactive Weather Map New forecast layout! Learn more

10-Day Weather Forecast

Advertisements
Track Severe Weather on mobile